createdAt,value
2022-12-28T00:00:01.423Z,89
2022-12-28T00:02:01.511Z,89
2022-12-28T00:04:01.228Z,89
2022-12-28T00:06:00.781Z,89
2022-12-28T00:07:59.402Z,90
2022-12-28T00:09:56.445Z,90
2022-12-28T00:12:00.901Z,90
2022-12-28T00:14:02.296Z,90
2022-12-28T00:15:58.525Z,90
2022-12-28T00:18:00.421Z,90
2022-12-28T00:19:59.734Z,90
2022-12-28T00:22:01.402Z,90
2022-12-28T00:24:00.312Z,90
2022-12-28T00:25:57.693Z,90
2022-12-28T00:28:01.202Z,90
2022-12-28T00:30:01.412Z,90
2022-12-28T00:31:59.989Z,90
2022-12-28T00:34:00.195Z,90
2022-12-28T00:36:01.108Z,90
2022-12-28T00:37:58.980Z,90
2022-12-28T00:39:59.701Z,90
2022-12-28T00:41:58.312Z,90
2022-12-28T00:43:58.521Z,90
2022-12-28T00:46:00.756Z,90
2022-12-28T00:47:59.581Z,90
2022-12-28T00:50:01.295Z,90
2022-12-28T00:52:01.379Z,90
2022-12-28T00:54:02.151Z,90
2022-12-28T00:56:00.528Z,90
2022-12-28T00:58:01.417Z,90
2022-12-28T00:59:59.892Z,90
2022-12-28T01:01:59.309Z,90
2022-12-28T01:04:00.154Z,90
2022-12-28T01:05:58.206Z,90
2022-12-28T01:08:04.542Z,90
2022-12-28T01:09:59.067Z,90
2022-12-28T01:12:01.604Z,90
2022-12-28T01:13:59.063Z,90
2022-12-28T01:15:58.479Z,90
2022-12-28T01:18:00.535Z,90
2022-12-28T01:20:01.416Z,90
2022-12-28T01:23:58.600Z,90
2022-12-28T01:26:01.003Z,90
2022-12-28T01:27:59.565Z,90
2022-12-28T01:29:58.275Z,90
2022-12-28T01:31:58.222Z,90
2022-12-28T01:33:58.107Z,90
2022-12-28T01:35:58.220Z,90
2022-12-28T01:38:00.439Z,90
2022-12-28T01:40:00.849Z,90
2022-12-28T01:42:01.557Z,90
2022-12-28T01:43:59.008Z,90
2022-12-28T01:45:56.488Z,90
2022-12-28T01:47:59.848Z,90
2022-12-28T01:50:01.732Z,90
2022-12-28T01:52:00.546Z,90
2022-12-28T01:54:04.604Z,90
2022-12-28T01:56:00.353Z,90
2022-12-28T01:58:00.301Z,90
2022-12-28T01:59:59.512Z,90
2022-12-28T02:02:01.454Z,90
2022-12-28T02:03:56.360Z,90
2022-12-28T02:05:58.188Z,90
2022-12-28T02:08:00.542Z,90
2022-12-28T02:10:40.336Z,90
2022-12-28T02:11:59.026Z,90
2022-12-28T02:13:57.809Z,90
2022-12-28T02:16:01.389Z,90
2022-12-28T02:17:58.242Z,90
2022-12-28T02:19:59.591Z,90
2022-12-28T02:21:58.260Z,90
2022-12-28T02:23:59.929Z,90
2022-12-28T02:26:01.501Z,90
2022-12-28T02:28:00.408Z,90
2022-12-28T02:29:56.372Z,90
2022-12-28T02:31:58.248Z,90
2022-12-28T02:34:00.827Z,90
2022-12-28T02:35:58.196Z,90
2022-12-28T02:38:04.595Z,90
2022-12-28T02:40:01.484Z,90
2022-12-28T02:41:58.223Z,90
2022-12-28T02:43:58.112Z,90
2022-12-28T02:46:00.408Z,90
2022-12-28T02:48:00.481Z,90
2022-12-28T02:49:58.225Z,90
2022-12-28T02:52:00.839Z,90
2022-12-28T02:53:58.160Z,90
2022-12-28T02:56:01.447Z,90
2022-12-28T02:57:59.509Z,90
2022-12-28T02:59:56.409Z,90
2022-12-28T03:02:00.671Z,90
2022-12-28T03:04:01.679Z,90
2022-12-28T03:05:58.196Z,90
2022-12-28T03:07:59.795Z,90
2022-12-28T03:09:58.216Z,89
2022-12-28T03:12:00.512Z,90
2022-12-28T03:13:58.050Z,90
2022-12-28T03:15:59.859Z,90
2022-12-28T03:18:00.986Z,90
2022-12-28T03:19:58.438Z,90
2022-12-28T03:22:01.199Z,90
2022-12-28T03:25:58.232Z,90
2022-12-28T03:28:05.096Z,89
2022-12-28T03:29:58.194Z,89
2022-12-28T03:31:58.312Z,89
2022-12-28T03:33:58.519Z,89
2022-12-28T03:35:59.959Z,89
2022-12-28T03:37:59.442Z,89
2022-12-28T03:40:00.539Z,89
2022-12-28T03:42:01.286Z,89
2022-12-28T03:44:00.419Z,89
2022-12-28T03:45:58.321Z,89
2022-12-28T03:48:00.559Z,89
2022-12-28T03:50:01.659Z,89
2022-12-28T03:51:58.564Z,89
2022-12-28T03:54:01.556Z,89
2022-12-28T03:56:02.975Z,89
2022-12-28T03:58:00.902Z,89
2022-12-28T04:00:00.724Z,89
2022-12-28T04:01:59.155Z,89
2022-12-28T04:04:01.043Z,89
2022-12-28T04:06:01.447Z,89
2022-12-28T04:08:01.453Z,89
2022-12-28T04:09:58.319Z,89
2022-12-28T04:11:59.965Z,89
2022-12-28T04:14:02.155Z,89
2022-12-28T04:15:58.414Z,89
2022-12-28T04:18:00.508Z,89
2022-12-28T04:20:00.869Z,89
2022-12-28T04:21:58.300Z,90
2022-12-28T04:23:59.034Z,90
2022-12-28T04:27:59.739Z,90
2022-12-28T04:30:00.534Z,89
2022-12-28T04:31:59.085Z,89
2022-12-28T04:34:00.813Z,89
2022-12-28T04:35:58.267Z,89
2022-12-28T04:38:01.226Z,89
2022-12-28T04:39:58.613Z,89
2022-12-28T04:41:59.872Z,89
2022-12-28T04:43:58.205Z,89
2022-12-28T04:45:59.532Z,89
2022-12-28T04:47:56.683Z,89
2022-12-28T04:50:00.495Z,89
2022-12-28T04:52:04.651Z,89
2022-12-28T04:54:00.173Z,89
2022-12-28T04:56:00.481Z,89
2022-12-28T04:57:58.256Z,89
2022-12-28T05:00:01.345Z,89
2022-12-28T05:02:01.574Z,89
2022-12-28T05:04:00.458Z,89
2022-12-28T05:06:00.871Z,88
2022-12-28T05:08:00.904Z,88
2022-12-28T05:10:01.525Z,89
2022-12-28T05:11:58.769Z,89
2022-12-28T05:13:59.542Z,89
2022-12-28T05:17:59.914Z,89
2022-12-28T05:22:00.536Z,89
2022-12-28T05:24:03.315Z,89
2022-12-28T05:25:59.092Z,89
2022-12-28T05:27:58.274Z,89
2022-12-28T05:30:00.424Z,89
2022-12-28T05:31:58.330Z,89
2022-12-28T05:33:59.939Z,89
2022-12-28T05:35:58.173Z,89
2022-12-28T05:37:58.250Z,88
2022-12-28T05:39:58.168Z,88
2022-12-28T05:41:58.219Z,88
2022-12-28T05:43:59.589Z,88
2022-12-28T05:45:58.266Z,88
2022-12-28T05:47:59.049Z,88
2022-12-28T05:49:59.060Z,88
2022-12-28T05:52:00.488Z,88
2022-12-28T05:54:00.293Z,88
2022-12-28T05:56:00.952Z,88
2022-12-28T05:57:58.270Z,88
2022-12-28T06:00:01.091Z,88
2022-12-28T06:02:00.761Z,88
2022-12-28T06:04:01.333Z,88
2022-12-28T06:05:59.405Z,88
2022-12-28T06:08:01.280Z,88
2022-12-28T06:10:00.486Z,88
2022-12-28T06:11:58.303Z,88
2022-12-28T06:13:58.129Z,88
2022-12-28T06:17:58.232Z,88
2022-12-28T06:20:01.313Z,88
2022-12-28T06:21:58.325Z,88
2022-12-28T06:23:59.746Z,88
2022-12-28T06:25:58.252Z,88
2022-12-28T06:28:00.542Z,88
2022-12-28T06:29:58.301Z,88
2022-12-28T06:32:00.011Z,88
2022-12-28T06:33:58.588Z,88
2022-12-28T06:35:58.297Z,88
2022-12-28T06:38:01.458Z,88
2022-12-28T06:40:00.510Z,88
2022-12-28T06:41:58.683Z,88
2022-12-28T06:44:00.495Z,88
2022-12-28T06:46:00.880Z,88
2022-12-28T06:47:58.286Z,88
2022-12-28T06:50:00.918Z,88
2022-12-28T06:52:01.727Z,88
2022-12-28T06:54:01.926Z,87
2022-12-28T06:55:59.522Z,87
2022-12-28T06:57:58.291Z,87
2022-12-28T07:00:01.657Z,87
2022-12-28T07:02:00.148Z,87
2022-12-28T07:03:59.153Z,87
2022-12-28T07:05:59.945Z,87
2022-12-28T07:08:02.745Z,87
2022-12-28T07:10:01.819Z,87
2022-12-28T07:11:58.300Z,87
2022-12-28T07:13:58.659Z,88
2022-12-28T07:16:01.836Z,88
2022-12-28T07:17:58.290Z,88
2022-12-28T07:22:00.943Z,88
2022-12-28T07:23:59.689Z,87
2022-12-28T07:25:59.983Z,87
2022-12-28T07:28:01.387Z,87
2022-12-28T07:29:58.285Z,87
2022-12-28T07:31:59.996Z,86
2022-12-28T07:34:00.432Z,86
2022-12-28T07:36:01.348Z,86
2022-12-28T07:37:59.673Z,86
2022-12-28T07:40:01.096Z,86
2022-12-28T07:41:59.147Z,86
2022-12-28T07:44:00.105Z,86
2022-12-28T07:46:00.773Z,86
2022-12-28T07:48:00.039Z,86
2022-12-28T07:50:04.444Z,86
2022-12-28T07:52:01.439Z,86
2022-12-28T07:54:01.617Z,85
2022-12-28T07:56:00.098Z,86
2022-12-28T07:57:58.423Z,85
2022-12-28T07:59:59.212Z,85
2022-12-28T08:02:04.899Z,85
2022-12-28T08:04:01.202Z,85
2022-12-28T08:06:00.137Z,85
2022-12-28T08:08:03.476Z,85
2022-12-28T08:10:01.744Z,85
2022-12-28T08:12:00.309Z,85
2022-12-28T08:13:58.473Z,85
2022-12-28T08:15:59.806Z,85
2022-12-28T08:18:04.805Z,85
2022-12-28T08:20:00.858Z,85
2022-12-28T08:22:00.867Z,84
2022-12-28T08:24:00.985Z,84
2022-12-28T08:26:00.393Z,84
2022-12-28T08:28:01.686Z,84
2022-12-28T08:29:58.936Z,84
2022-12-28T08:32:00.554Z,84
2022-12-28T08:33:58.939Z,84
2022-12-28T08:35:59.905Z,84
2022-12-28T08:37:59.305Z,84
2022-12-28T08:40:01.842Z,84
2022-12-28T08:42:01.002Z,84
2022-12-28T08:43:57.110Z,83
2022-12-28T08:45:58.763Z,83
2022-12-28T08:48:01.700Z,83
2022-12-28T08:50:05.309Z,82
2022-12-28T08:52:04.837Z,83
2022-12-28T08:54:01.905Z,83
2022-12-28T08:56:06.316Z,83
2022-12-28T08:57:59.777Z,82
2022-12-28T09:00:00.610Z,82
2022-12-28T09:01:59.085Z,82
2022-12-28T09:04:01.657Z,82
2022-12-28T09:06:00.687Z,82
2022-12-28T09:07:59.650Z,82
2022-12-28T09:10:01.369Z,82
2022-12-28T09:11:58.663Z,82
2022-12-28T09:13:58.653Z,82
2022-12-28T09:16:02.174Z,81
2022-12-28T09:17:59.631Z,81
2022-12-28T09:20:03.856Z,81
2022-12-28T09:21:58.686Z,80
2022-12-28T09:24:02.130Z,79
2022-12-28T09:26:03.827Z,79
2022-12-28T09:27:59.791Z,79
2022-12-28T09:30:02.397Z,79
2022-12-28T09:32:02.790Z,80
2022-12-28T09:34:32.005Z,79
2022-12-28T09:36:02.998Z,79
2022-12-28T09:38:00.739Z,79
2022-12-28T09:40:01.865Z,79
2022-12-28T09:41:59.330Z,79
2022-12-28T09:44:02.187Z,79
2022-12-28T09:45:59.480Z,79
2022-12-28T09:48:01.888Z,79
2022-12-28T09:49:58.935Z,80
2022-12-28T09:51:59.411Z,80
2022-12-28T09:53:59.888Z,80
2022-12-28T09:56:01.324Z,80
2022-12-28T09:58:02.711Z,80
2022-12-28T10:00:02.008Z,80
2022-12-28T10:01:59.502Z,81
2022-12-28T10:03:59.494Z,80
2022-12-28T10:06:02.448Z,80
2022-12-28T10:08:01.896Z,80
2022-12-28T10:11:59.128Z,80
2022-12-28T10:14:02.031Z,79
2022-12-28T10:16:01.076Z,79
2022-12-28T10:18:00.787Z,78
2022-12-28T10:20:01.438Z,78
2022-12-28T10:21:59.638Z,79
2022-12-28T10:24:30.093Z,79
2022-12-28T10:26:02.661Z,79
2022-12-28T10:28:00.981Z,79
2022-12-28T10:30:01.739Z,78
2022-12-28T10:32:02.803Z,78
2022-12-28T10:33:59.507Z,78
2022-12-28T10:36:01.118Z,78
2022-12-28T10:38:01.746Z,78
2022-12-28T10:41:59.841Z,78
2022-12-28T10:44:29.590Z,78
2022-12-28T10:45:57.740Z,78
2022-12-28T10:47:59.989Z,78
2022-12-28T10:52:06.043Z,78
2022-12-28T10:54:03.005Z,78
2022-12-28T10:55:59.748Z,78
2022-12-28T11:00:02.406Z,77
2022-12-28T11:02:00.927Z,77
2022-12-28T11:06:00.257Z,78
2022-12-28T11:08:03.389Z,78
2022-12-28T11:10:01.319Z,78
2022-12-28T11:12:03.233Z,77
2022-12-28T11:14:00.992Z,77
2022-12-28T11:16:00.831Z,77
2022-12-28T11:18:02.413Z,77
2022-12-28T11:19:59.902Z,77
2022-12-28T11:22:01.708Z,77
2022-12-28T11:24:00.154Z,77
2022-12-28T11:26:03.241Z,78
2022-12-28T11:28:01.598Z,77
2022-12-28T11:30:03.719Z,77
2022-12-28T11:34:02.788Z,76
2022-12-28T11:36:06.941Z,76
2022-12-28T11:38:00.418Z,76
2022-12-28T11:40:06.838Z,76
2022-12-28T11:42:36.896Z,77
2022-12-28T11:44:03.936Z,76
2022-12-28T11:46:03.639Z,76
2022-12-28T11:48:01.305Z,77
2022-12-28T11:50:05.075Z,76
2022-12-28T11:52:36.920Z,76
2022-12-28T11:54:37.648Z,76
2022-12-28T11:56:37.628Z,76
2022-12-28T11:58:35.788Z,76
2022-12-28T12:00:39.564Z,75
2022-12-28T12:02:37.703Z,76
2022-12-28T12:04:37.645Z,76
2022-12-28T12:06:41.027Z,77
2022-12-28T12:08:38.787Z,76
2022-12-28T12:10:38.153Z,77
2022-12-28T12:12:37.645Z,77
2022-12-28T12:14:37.780Z,76
2022-12-28T12:16:37.216Z,77
2022-12-28T12:18:40.838Z,75
2022-12-28T12:20:42.310Z,76
2022-12-28T12:22:38.014Z,76
2022-12-28T12:24:37.653Z,76
2022-12-28T12:26:38.937Z,76
2022-12-28T12:28:39.068Z,76
2022-12-28T12:30:38.017Z,77
2022-12-28T12:32:38.433Z,76
2022-12-28T12:34:38.800Z,76
2022-12-28T12:36:39.329Z,75
2022-12-28T12:38:37.666Z,75
2022-12-28T12:40:39.092Z,75
2022-12-28T12:42:36.133Z,75
2022-12-28T12:44:38.782Z,75
2022-12-28T12:46:38.672Z,75
2022-12-28T12:48:38.907Z,75
2022-12-28T12:50:41.022Z,75
2022-12-28T12:52:42.187Z,74
2022-12-28T12:54:36.057Z,75
2022-12-28T12:56:40.805Z,75
2022-12-28T12:58:37.888Z,75
2022-12-28T13:00:39.158Z,75
2022-12-28T13:02:41.266Z,75
2022-12-28T13:04:38.371Z,75
2022-12-28T13:06:37.542Z,75
2022-12-28T13:08:38.259Z,75
2022-12-28T13:10:38.469Z,74
2022-12-28T13:12:35.816Z,74
2022-12-28T13:14:38.236Z,75
2022-12-28T13:16:40.926Z,74
2022-12-28T13:20:40.891Z,74
2022-12-28T13:22:38.419Z,75
2022-12-28T13:24:44.025Z,75
2022-12-28T13:26:37.642Z,75
2022-12-28T13:28:37.683Z,75
2022-12-28T13:30:37.729Z,75
2022-12-28T13:32:38.716Z,75
2022-12-28T13:34:39.301Z,75
2022-12-28T13:36:38.046Z,75
2022-12-28T13:38:37.593Z,75
2022-12-28T13:40:37.689Z,75
2022-12-28T13:42:37.676Z,75
2022-12-28T13:44:38.411Z,75
2022-12-28T13:46:36.171Z,75
2022-12-28T13:48:38.367Z,75
2022-12-28T13:50:38.953Z,74
2022-12-28T13:52:38.316Z,75
2022-12-28T13:54:43.695Z,75
2022-12-28T13:56:38.748Z,75
2022-12-28T13:58:41.134Z,75
2022-12-28T14:00:37.684Z,75
2022-12-28T14:02:37.308Z,75
2022-12-28T14:04:53.278Z,75
2022-12-28T14:06:37.668Z,75
2022-12-28T14:08:38.436Z,75
2022-12-28T14:10:37.714Z,75
2022-12-28T14:12:37.676Z,75
2022-12-28T14:14:37.559Z,75
2022-12-28T14:16:38.050Z,74
2022-12-28T14:18:37.075Z,75
2022-12-28T14:22:37.695Z,74
2022-12-28T14:24:41.250Z,74
2022-12-28T14:26:38.403Z,74
2022-12-28T14:28:38.910Z,74
2022-12-28T14:30:37.678Z,74
2022-12-28T14:32:42.754Z,74
2022-12-28T14:34:38.495Z,74
2022-12-28T14:36:38.149Z,73
2022-12-28T14:38:37.535Z,73
2022-12-28T14:40:39.884Z,73
2022-12-28T14:42:37.742Z,72
2022-12-28T14:44:37.990Z,72
2022-12-28T14:46:41.586Z,72
2022-12-28T14:48:37.727Z,73
2022-12-28T14:50:38.981Z,72
2022-12-28T14:52:37.965Z,73
2022-12-28T14:54:37.825Z,73
2022-12-28T14:56:36.242Z,73
2022-12-28T15:00:36.190Z,73
2022-12-28T15:02:40.945Z,73
2022-12-28T15:04:37.789Z,72
2022-12-28T15:06:38.935Z,73
2022-12-28T15:08:38.519Z,74
2022-12-28T15:10:37.726Z,74
2022-12-28T15:12:39.283Z,74
2022-12-28T15:14:39.334Z,74
2022-12-28T15:16:41.186Z,75
2022-12-28T15:18:39.154Z,75
2022-12-28T15:20:38.391Z,75
2022-12-28T15:22:37.532Z,75
2022-12-28T15:24:39.296Z,75
2022-12-28T15:26:36.535Z,75
2022-12-28T15:28:41.134Z,75
2022-12-28T15:30:38.898Z,75
2022-12-28T15:32:39.839Z,75
2022-12-28T15:34:37.652Z,75
2022-12-28T15:36:38.088Z,75
2022-12-28T15:38:37.845Z,75
2022-12-28T15:40:40.870Z,75
2022-12-28T15:42:40.483Z,76
2022-12-28T15:44:38.467Z,76
2022-12-28T15:46:41.451Z,77
2022-12-28T15:48:41.379Z,77
2022-12-28T15:50:36.246Z,77
2022-12-28T15:52:37.729Z,77
2022-12-28T15:54:41.316Z,76
2022-12-28T15:56:38.532Z,77
2022-12-28T15:58:38.559Z,76
2022-12-28T16:00:36.165Z,77
2022-12-28T16:02:39.895Z,77
2022-12-28T16:04:36.167Z,77
2022-12-28T16:06:43.764Z,77
2022-12-28T16:08:37.760Z,77
2022-12-28T16:10:38.867Z,78
2022-12-28T16:12:38.382Z,77
2022-12-28T16:14:44.040Z,76
2022-12-28T16:16:38.903Z,77
2022-12-28T16:18:37.706Z,77
2022-12-28T16:20:37.969Z,77
2022-12-28T16:22:40.862Z,78
2022-12-28T16:24:37.834Z,78
2022-12-28T16:26:39.263Z,78
2022-12-28T16:28:38.021Z,78
2022-12-28T16:30:40.978Z,78
2022-12-28T16:32:38.941Z,78
2022-12-28T16:34:38.461Z,78
2022-12-28T16:36:38.123Z,78
2022-12-28T16:38:37.689Z,77
2022-12-28T16:40:37.984Z,76
2022-12-28T16:42:40.958Z,76
2022-12-28T16:44:40.871Z,77
2022-12-28T16:46:38.212Z,76
2022-12-28T16:48:37.695Z,76
2022-12-28T16:50:38.764Z,76
2022-12-28T16:52:38.843Z,76
2022-12-28T16:54:41.114Z,76
2022-12-28T16:56:39.116Z,76
2022-12-28T16:58:37.720Z,75
2022-12-28T17:00:39.081Z,75
2022-12-28T17:02:41.042Z,76
2022-12-28T17:04:39.210Z,76
2022-12-28T17:06:37.221Z,75
2022-12-28T17:08:38.815Z,75
2022-12-28T17:11:14.565Z,76
2022-12-28T17:18:34.133Z,76
2022-12-28T17:22:39.221Z,77
2022-12-28T17:25:19.920Z,77
2022-12-28T17:27:19.189Z,76
2022-12-28T17:34:38.843Z,77
2022-12-28T17:36:37.130Z,77
2022-12-28T17:41:59.956Z,78
2022-12-28T17:44:39.609Z,78
2022-12-28T17:46:48.265Z,78
2022-12-28T17:48:41.029Z,78
2022-12-28T17:50:38.737Z,78
2022-12-28T17:52:39.133Z,77
2022-12-28T17:54:37.775Z,78
2022-12-28T17:56:37.850Z,78
2022-12-28T17:58:40.468Z,78
2022-12-28T18:00:38.587Z,78
2022-12-28T18:02:38.607Z,77
2022-12-28T18:04:38.526Z,77
2022-12-28T18:06:37.945Z,77
2022-12-28T18:08:37.644Z,77
2022-12-28T18:10:38.432Z,76
2022-12-28T18:14:35.581Z,76
2022-12-28T18:16:39.006Z,76
2022-12-28T18:18:39.453Z,76
2022-12-28T18:20:38.341Z,76
2022-12-28T18:22:40.270Z,76
2022-12-28T18:24:39.021Z,76
2022-12-28T18:26:37.848Z,76
2022-12-28T18:28:37.773Z,76
2022-12-28T18:30:38.231Z,76
2022-12-28T18:32:38.795Z,76
2022-12-28T18:34:43.622Z,76
2022-12-28T18:36:38.925Z,75
2022-12-28T18:38:37.869Z,75
2022-12-28T18:40:38.616Z,75
2022-12-28T18:42:38.595Z,75
2022-12-28T18:46:38.822Z,75
2022-12-28T18:48:37.329Z,75
2022-12-28T18:50:40.536Z,75
2022-12-28T18:52:37.835Z,74
2022-12-28T18:54:40.520Z,75
2022-12-28T18:56:38.221Z,74
2022-12-28T18:58:37.806Z,75
2022-12-28T19:00:37.377Z,75
2022-12-28T19:02:38.296Z,75
2022-12-28T19:04:37.457Z,75
2022-12-28T19:06:37.491Z,76
2022-12-28T19:08:37.634Z,76
2022-12-28T19:10:40.342Z,76
2022-12-28T19:12:39.110Z,76
2022-12-28T19:14:39.079Z,76
2022-12-28T19:16:37.382Z,76
2022-12-28T19:18:38.144Z,76
2022-12-28T19:20:38.202Z,76
2022-12-28T19:22:37.330Z,76
2022-12-28T19:24:40.624Z,77
2022-12-28T19:26:38.267Z,77
2022-12-28T19:28:38.923Z,77
2022-12-28T19:30:40.541Z,77
2022-12-28T19:32:39.113Z,77
2022-12-28T19:34:39.009Z,77
2022-12-28T19:36:38.195Z,77
2022-12-28T19:38:37.823Z,78
2022-12-28T19:40:35.584Z,78
2022-12-28T19:42:43.661Z,78
2022-12-28T19:44:38.597Z,78
2022-12-28T19:46:40.568Z,78
2022-12-28T19:48:39.184Z,77
2022-12-28T19:50:37.321Z,78
2022-12-28T19:52:37.339Z,77
2022-12-28T19:54:38.584Z,77
2022-12-28T19:56:35.608Z,78
2022-12-28T19:58:37.384Z,78
2022-12-28T20:00:37.679Z,78
2022-12-28T20:02:38.034Z,77
2022-12-28T20:04:39.126Z,77
2022-12-28T20:06:37.766Z,78
2022-12-28T20:08:35.584Z,78
2022-12-28T20:10:39.143Z,78
2022-12-28T20:12:38.138Z,78
2022-12-28T20:14:37.591Z,78
2022-12-28T20:16:37.391Z,77
2022-12-28T20:18:40.256Z,77
2022-12-28T20:21:09.203Z,77
2022-12-28T20:22:37.313Z,77
2022-12-28T20:24:39.162Z,77
2022-12-28T20:26:37.415Z,77
2022-12-28T20:28:40.292Z,78
2022-12-28T20:30:35.805Z,78
2022-12-28T20:32:42.847Z,78
2022-12-28T20:34:37.581Z,78
2022-12-28T20:36:37.283Z,77
2022-12-28T20:38:38.271Z,77
2022-12-28T20:40:38.199Z,78
2022-12-28T20:42:40.556Z,78
2022-12-28T20:44:38.332Z,78
2022-12-28T20:46:44.181Z,77
2022-12-28T20:48:37.318Z,77
2022-12-28T20:50:39.346Z,77
2022-12-28T20:52:37.813Z,77
2022-12-28T20:54:37.864Z,77
2022-12-28T20:56:40.597Z,76
2022-12-28T20:58:38.285Z,77
2022-12-28T21:00:37.403Z,76
2022-12-28T21:02:40.504Z,77
2022-12-28T21:04:38.330Z,77
2022-12-28T21:06:37.387Z,77
2022-12-28T21:08:38.606Z,78
2022-12-28T21:10:38.757Z,78
2022-12-28T21:12:37.360Z,78
2022-12-28T21:16:39.145Z,78
2022-12-28T21:18:40.573Z,78
2022-12-28T21:20:39.227Z,78
2022-12-28T21:22:39.035Z,78
2022-12-28T21:24:39.250Z,78
2022-12-28T21:26:38.778Z,78
2022-12-28T21:28:37.354Z,78
2022-12-28T21:30:38.754Z,78
2022-12-28T21:32:38.143Z,78
2022-12-28T21:34:38.949Z,78
2022-12-28T21:36:37.977Z,78
2022-12-28T21:38:40.269Z,78
2022-12-28T21:40:40.553Z,78
2022-12-28T21:42:38.703Z,79
2022-12-28T21:44:37.642Z,79
2022-12-28T21:46:44.011Z,78
2022-12-28T21:48:43.991Z,79
2022-12-28T21:50:43.904Z,78
2022-12-28T21:52:40.513Z,78
2022-12-28T21:54:38.968Z,79
2022-12-28T21:56:40.519Z,79
2022-12-28T21:58:37.806Z,80
2022-12-28T22:00:37.333Z,79
2022-12-28T22:02:38.238Z,80
2022-12-28T22:04:38.093Z,80
2022-12-28T22:06:39.517Z,80
2022-12-28T22:08:37.744Z,80
2022-12-28T22:10:37.330Z,79
2022-12-28T22:12:40.971Z,79
2022-12-28T22:14:38.264Z,79
2022-12-28T22:19:00.676Z,79
2022-12-28T22:20:40.446Z,79
2022-12-28T22:22:39.467Z,79
2022-12-28T22:24:37.251Z,79
2022-12-28T22:26:40.371Z,78
2022-12-28T22:28:37.697Z,78
2022-12-28T22:30:40.528Z,78
2022-12-28T22:32:40.584Z,78
2022-12-28T22:34:37.421Z,78
2022-12-28T22:36:40.480Z,77
2022-12-28T22:38:38.717Z,77
2022-12-28T22:40:40.544Z,76
2022-12-28T22:42:38.711Z,76
2022-12-28T22:44:37.351Z,76
2022-12-28T22:46:38.820Z,76
2022-12-28T22:48:38.282Z,76
2022-12-28T22:50:41.439Z,76
2022-12-28T22:52:41.015Z,75
2022-12-28T22:54:39.097Z,75
2022-12-28T22:56:37.341Z,74
2022-12-28T22:58:37.366Z,74
2022-12-28T23:00:40.185Z,73
2022-12-28T23:02:40.596Z,74
2022-12-28T23:04:40.544Z,73
2022-12-28T23:06:37.424Z,73
2022-12-28T23:08:40.559Z,73
2022-12-28T23:10:37.696Z,72
2022-12-28T23:12:40.624Z,72
2022-12-28T23:16:37.430Z,72
2022-12-28T23:18:37.366Z,71
2022-12-28T23:20:37.384Z,72
2022-12-28T23:22:38.969Z,72
2022-12-28T23:24:37.267Z,72
2022-12-28T23:26:37.395Z,72
2022-12-28T23:28:37.695Z,74
2022-12-28T23:30:37.536Z,75
2022-12-28T23:32:37.338Z,76
2022-12-28T23:34:37.416Z,76
2022-12-28T23:36:37.371Z,77
2022-12-28T23:38:43.581Z,78
2022-12-28T23:40:37.364Z,77
2022-12-28T23:42:37.409Z,78
2022-12-28T23:44:40.601Z,77
2022-12-28T23:46:37.635Z,76
2022-12-28T23:48:37.303Z,77
2022-12-28T23:50:37.372Z,77
2022-12-28T23:52:37.389Z,77
2022-12-28T23:54:37.241Z,77
2022-12-28T23:56:37.376Z,77
2022-12-28T23:58:36.591Z,76
